Time;durP1;ratioP1;P1;durP2;ratioP2;P2;SDS_P1;SDS_P2;PMS_P1;PMS_P2;Temp;Humidity;BMP_temperature;BMP_pressure;BME280_temperature;BME280_humidity;BME280_pressure;Samples;Min_cycle;Max_cycle;Signal;HPM_P1;HPM_P2
2023/08/16 00:02:22;;;;;;;5.80;4.50;;;15.50;99.90;;;;;;5096465;28;20058;-54
2023/08/16 00:04:48;;;;;;;5.68;4.60;;;15.50;99.90;;;;;;5093628;28;20123;-53
2023/08/16 00:07:14;;;;;;;10.35;5.07;;;15.40;99.90;;;;;;5094965;28;20111;-52
2023/08/16 00:09:40;;;;;;;4.70;4.20;;;15.40;99.90;;;;;;5094271;28;20154;-53
2023/08/16 00:12:06;;;;;;;5.40;4.10;;;15.30;99.90;;;;;;5076389;28;20127;-53
2023/08/16 00:14:32;;;;;;;7.25;3.72;;;15.30;99.90;;;;;;5077456;28;20043;-53
2023/08/16 00:16:58;;;;;;;5.18;3.95;;;15.30;99.90;;;;;;5095012;28;20062;-53
2023/08/16 00:19:24;;;;;;;21.45;4.45;;;15.20;99.90;;;;;;5093622;28;20032;-53
2023/08/16 00:21:50;;;;;;;5.72;3.67;;;15.20;99.90;;;;;;5095324;28;20036;-51
2023/08/16 00:24:16;;;;;;;4.65;3.70;;;15.20;99.90;;;;;;5094341;28;20051;-53
2023/08/16 00:26:42;;;;;;;8.18;3.50;;;15.20;99.90;;;;;;5095315;28;20039;-50
2023/08/16 00:29:08;;;;;;;5.60;4.20;;;15.20;99.90;;;;;;5095069;28;20047;-50
2023/08/16 00:31:33;;;;;;;5.93;4.20;;;15.20;99.90;;;;;;5094220;28;20046;-54
2023/08/16 00:33:59;;;;;;;5.70;4.28;;;15.20;99.90;;;;;;5060608;28;20929;-52
2023/08/16 00:36:25;;;;;;;7.55;4.40;;;15.20;99.90;;;;;;5076388;28;20075;-52
2023/08/16 00:38:51;;;;;;;5.85;4.18;;;15.20;99.90;;;;;;5094470;28;20040;-52
2023/08/16 00:41:17;;;;;;;7.95;4.90;;;15.20;99.90;;;;;;5095947;28;20398;-52
2023/08/16 00:43:42;;;;;;;12.38;5.20;;;15.20;99.90;;;;;;5095887;28;21821;-50
2023/08/16 00:46:11;;;;;;;8.05;4.57;;;15.20;99.90;;;;;;5096324;28;20040;-50
2023/08/16 00:48:38;;;;;;;6.95;4.15;;;15.20;99.90;;;;;;5095783;28;20079;-52
2023/08/16 00:51:06;;;;;;;5.32;3.88;;;15.20;99.90;;;;;;5094846;27;20055;-55
2023/08/16 00:53:32;;;;;;;6.53;3.53;;;15.10;99.90;;;;;;5098234;28;20040;-54
2023/08/16 00:55:58;;;;;;;4.30;3.10;;;15.20;99.90;;;;;;5098156;27;20096;-53
2023/08/16 00:58:25;;;;;;;4.35;3.45;;;15.10;99.90;;;;;;5098506;27;20040;-51
2023/08/16 01:00:51;;;;;;;5.05;3.60;;;15.10;99.90;;;;;;5099409;28;20051;-50
2023/08/16 01:03:17;;;;;;;6.63;4.25;;;15.10;99.90;;;;;;5098560;28;20500;-52
2023/08/16 01:05:42;;;;;;;7.72;5.28;;;15.00;99.90;;;;;;5098399;27;20071;-51
2023/08/16 01:08:08;;;;;;;6.88;5.38;;;15.00;99.90;;;;;;5070009;28;20043;-52
2023/08/16 01:10:58;;;;;;;4.88;4.20;;;15.00;99.90;;;;;;5081362;28;20481;-54
2023/08/16 01:13:41;;;;;;;4.28;3.50;;;15.00;99.90;;;;;;5068116;27;20089;-52
2023/08/16 01:16:09;;;;;;;3.75;3.35;;;15.00;99.90;;;;;;5082453;28;20131;-54
2023/08/16 01:18:37;;;;;;;4.00;3.20;;;15.00;99.90;;;;;;5080871;28;20043;-53
2023/08/16 01:21:05;;;;;;;3.83;3.10;;;14.90;99.90;;;;;;5096783;28;20043;-53
2023/08/16 01:23:33;;;;;;;4.32;3.10;;;14.90;99.90;;;;;;5098247;27;20094;-54
2023/08/16 01:26:21;;;;;;;3.00;2.70;;;14.90;99.90;;;;;;5096358;27;20410;-53
2023/08/16 01:28:47;;;;;;;3.92;2.80;;;14.80;99.90;;;;;;5098884;28;20048;-52
2023/08/16 01:31:13;;;;;;;3.17;2.60;;;14.80;99.90;;;;;;5097527;28;20079;-52
2023/08/16 01:33:39;;;;;;;3.28;2.20;;;14.70;99.90;;;;;;5097446;27;20055;-52
2023/08/16 01:36:05;;;;;;;4.25;2.42;;;14.80;99.90;;;;;;5077969;28;20728;-53
2023/08/16 01:38:30;;;;;;;4.28;2.67;;;14.70;99.90;;;;;;5085275;28;20052;-52
2023/08/16 01:41:31;;;;;;;4.80;2.70;;;14.70;99.90;;;;;;5097587;27;20127;-52
2023/08/16 01:43:57;;;;;;;4.00;3.13;;;14.70;99.90;;;;;;5099563;27;20067;-54
2023/08/16 01:46:24;;;;;;;3.42;3.13;;;14.70;99.90;;;;;;5099197;28;20478;-53
2023/08/16 01:48:51;;;;;;;5.15;2.65;;;14.60;99.90;;;;;;5096336;27;20048;-52
2023/08/16 01:51:18;;;;;;;4.00;2.45;;;14.60;99.90;;;;;;5097492;28;20065;-53
2023/08/16 01:53:52;;;;;;;4.00;2.17;;;14.60;99.90;;;;;;5097808;28;20064;-51
2023/08/16 01:56:18;;;;;;;4.88;2.95;;;14.50;99.90;;;;;;5080788;28;20035;-53
2023/08/16 01:58:44;;;;;;;4.53;3.70;;;14.50;99.90;;;;;;5099376;28;20044;-52
2023/08/16 02:01:10;;;;;;;7.63;5.13;;;14.50;99.90;;;;;;5096740;28;20051;-52
2023/08/16 02:03:36;;;;;;;8.40;6.13;;;14.40;99.90;;;;;;5080259;28;20089;-55
2023/08/16 02:06:01;;;;;;;9.73;6.75;;;14.40;99.90;;;;;;5096704;28;20044;-52
2023/08/16 02:08:27;;;;;;;8.95;7.20;;;14.40;99.90;;;;;;5098375;28;20071;-54
2023/08/16 02:10:54;;;;;;;10.95;8.10;;;14.40;99.90;;;;;;5098384;28;20436;-53
2023/08/16 02:13:20;;;;;;;9.50;7.53;;;14.40;99.90;;;;;;5098585;27;20048;-53
2023/08/16 02:15:45;;;;;;;10.25;7.50;;;14.40;99.90;;;;;;5084898;28;20058;-54
2023/08/16 02:18:12;;;;;;;11.25;7.55;;;14.40;99.90;;;;;;5084471;28;20046;-53
2023/08/16 02:20:38;;;;;;;7.43;6.63;;;14.40;99.90;;;;;;5098062;28;20094;-53
2023/08/16 02:23:08;;;;;;;6.95;5.50;;;14.30;99.90;;;;;;5097856;27;20122;-55
2023/08/16 02:25:34;;;;;;;7.03;5.20;;;14.30;99.90;;;;;;5098531;27;20046;-54
2023/08/16 02:28:00;;;;;;;7.85;5.47;;;14.30;99.90;;;;;;5097371;28;20036;-54
2023/08/16 02:30:26;;;;;;;6.00;5.38;;;14.30;99.90;;;;;;5097266;27;20038;-55
2023/08/16 02:32:54;;;;;;;7.13;5.25;;;14.30;99.90;;;;;;5086289;28;20055;-54
2023/08/16 02:35:20;;;;;;;6.00;5.40;;;14.30;99.90;;;;;;5076362;28;20033;-51
2023/08/16 02:37:45;;;;;;;7.15;5.50;;;14.30;99.90;;;;;;5076840;28;20054;-53
2023/08/16 02:40:11;;;;;;;5.15;4.05;;;14.30;99.90;;;;;;5076586;28;20134;-51
2023/08/16 02:42:37;;;;;;;4.30;3.40;;;14.30;99.90;;;;;;5076643;28;20039;-52
2023/08/16 02:45:03;;;;;;;3.70;2.95;;;14.20;99.90;;;;;;5066530;28;20075;-58
2023/08/16 02:47:29;;;;;;;3.92;2.97;;;14.20;99.90;;;;;;5088542;28;20048;-59
2023/08/16 02:49:54;;;;;;;3.60;2.88;;;14.20;99.90;;;;;;5088368;28;20055;-58
2023/08/16 02:52:20;;;;;;;3.75;3.33;;;14.20;99.90;;;;;;5086615;28;20059;-58
2023/08/16 02:54:46;;;;;;;11.88;4.68;;;14.20;99.90;;;;;;5087156;28;20482;-57
2023/08/16 02:57:13;;;;;;;4.50;4.10;;;14.10;99.90;;;;;;5087793;28;20043;-58
2023/08/16 02:59:48;;;;;;;8.68;5.72;;;14.10;99.90;;;;;;5087165;28;20043;-58
2023/08/16 03:02:14;;;;;;;8.30;5.78;;;14.00;99.90;;;;;;5086412;28;20044;-58
2023/08/16 03:04:40;;;;;;;6.45;5.55;;;14.10;99.90;;;;;;5072804;28;20104;-58
2023/08/16 03:07:06;;;;;;;6.07;4.70;;;14.10;99.90;;;;;;5067999;28;20275;-57
2023/08/16 03:09:33;;;;;;;6.28;5.30;;;14.00;99.90;;;;;;5086809;28;20063;-58
2023/08/16 03:11:58;;;;;;;8.55;6.93;;;14.00;99.90;;;;;;5088031;28;20098;-58
2023/08/16 03:14:24;;;;;;;8.18;7.38;;;14.00;99.90;;;;;;5087238;28;20085;-57
2023/08/16 03:16:50;;;;;;;7.68;6.05;;;14.00;99.90;;;;;;5087459;28;20114;-57
2023/08/16 03:19:16;;;;;;;6.80;5.95;;;14.00;99.90;;;;;;5086117;28;20568;-58
2023/08/16 03:21:41;;;;;;;5.07;4.57;;;14.00;99.90;;;;;;5087815;28;20044;-57
2023/08/16 03:24:07;;;;;;;4.88;4.00;;;14.00;99.90;;;;;;5085999;28;20040;-57
2023/08/16 03:26:33;;;;;;;4.40;3.97;;;13.90;99.90;;;;;;5087689;28;20051;-58
2023/08/16 03:28:59;;;;;;;4.55;3.75;;;13.80;99.90;;;;;;5086490;28;20040;-58
2023/08/16 03:31:24;;;;;;;3.60;3.20;;;13.80;99.90;;;;;;5086152;28;20173;-58
2023/08/16 03:33:50;;;;;;;3.95;3.63;;;13.80;99.90;;;;;;5084160;28;20399;-58
2023/08/16 03:36:16;;;;;;;4.15;3.67;;;13.70;99.90;;;;;;5086901;28;20059;-58
2023/08/16 03:38:41;;;;;;;5.20;3.80;;;13.80;99.90;;;;;;5086386;28;20036;-57
2023/08/16 03:41:07;;;;;;;4.82;4.13;;;13.70;99.90;;;;;;5089353;28;20074;-53
2023/08/16 03:43:36;;;;;;;4.70;4.30;;;13.70;99.90;;;;;;5087218;28;20048;-58
2023/08/16 03:46:03;;;;;;;7.35;5.25;;;13.70;99.90;;;;;;5088774;28;20042;-57
2023/08/16 03:48:29;;;;;;;7.20;4.97;;;13.70;99.90;;;;;;5086335;28;20055;-58
2023/08/16 03:50:55;;;;;;;7.55;5.50;;;13.70;99.90;;;;;;5088333;28;20036;-56
2023/08/16 03:53:21;;;;;;;7.28;5.13;;;13.60;99.90;;;;;;5086118;28;20145;-53
2023/08/16 03:55:47;;;;;;;10.77;7.50;;;13.60;99.90;;;;;;5085634;28;20067;-58
2023/08/16 03:58:13;;;;;;;9.25;6.50;;;13.60;99.90;;;;;;5086450;28;20047;-56
2023/08/16 04:00:40;;;;;;;8.15;6.03;;;13.60;99.90;;;;;;5087166;28;20064;-58
2023/08/16 04:03:06;;;;;;;8.20;6.15;;;13.60;99.90;;;;;;5086792;28;20075;-58
2023/08/16 04:05:33;;;;;;;7.38;5.50;;;13.60;99.90;;;;;;5083674;28;20051;-58
2023/08/16 04:07:58;;;;;;;9.18;5.70;;;13.60;99.90;;;;;;5085778;28;20040;-57
2023/08/16 04:10:24;;;;;;;6.45;5.57;;;13.60;99.90;;;;;;5084401;28;20292;-53
2023/08/16 04:12:50;;;;;;;12.93;7.63;;;13.60;99.90;;;;;;5086836;28;20422;-59
2023/08/16 04:15:16;;;;;;;10.13;7.18;;;13.60;99.90;;;;;;5085509;28;20406;-57
2023/08/16 04:17:42;;;;;;;7.20;5.82;;;13.60;99.90;;;;;;5086570;28;20116;-56
2023/08/16 04:20:08;;;;;;;10.90;7.00;;;13.60;99.90;;;;;;5090268;28;20344;-58
2023/08/16 04:22:37;;;;;;;7.82;6.57;;;13.60;99.90;;;;;;5088831;28;20059;-56
2023/08/16 04:25:03;;;;;;;6.57;4.95;;;13.60;99.90;;;;;;5086711;28;20046;-56
2023/08/16 04:27:29;;;;;;;5.68;4.10;;;13.60;99.90;;;;;;5090029;28;20479;-57
2023/08/16 04:29:55;;;;;;;5.10;4.55;;;13.60;99.90;;;;;;5092935;28;20051;-58
2023/08/16 04:32:20;;;;;;;5.00;4.50;;;13.60;99.90;;;;;;5095436;28;20041;-57
2023/08/16 04:34:46;;;;;;;9.60;6.25;;;13.50;99.90;;;;;;5110220;27;20103;-58
2023/08/16 04:37:12;;;;;;;8.27;4.75;;;13.50;99.90;;;;;;5108090;27;20036;-58
2023/08/16 04:39:37;;;;;;;6.93;3.80;;;13.60;99.90;;;;;;5110958;27;20163;-59
2023/08/16 04:42:03;;;;;;;6.88;3.78;;;13.50;99.90;;;;;;5112083;28;20039;-58
2023/08/16 04:44:29;;;;;;;6.22;3.97;;;13.60;99.90;;;;;;5111241;27;20039;-58
2023/08/16 04:46:55;;;;;;;4.53;3.80;;;13.60;99.90;;;;;;5113959;28;20043;-58
2023/08/16 04:49:22;;;;;;;5.68;4.90;;;13.50;99.90;;;;;;5112534;27;20440;-57
2023/08/16 04:51:47;;;;;;;6.38;4.95;;;13.50;99.90;;;;;;5095266;28;20063;-56
2023/08/16 04:54:13;;;;;;;5.93;5.00;;;13.50;99.90;;;;;;5112792;28;20584;-59
2023/08/16 04:56:39;;;;;;;7.13;5.20;;;13.50;99.90;;;;;;5111475;28;20037;-58
2023/08/16 04:59:05;;;;;;;15.45;8.70;;;13.50;99.90;;;;;;5112475;27;20130;-58
2023/08/16 05:01:31;;;;;;;12.82;8.32;;;13.60;99.90;;;;;;5111968;28;20079;-59
2023/08/16 05:03:56;;;;;;;10.20;7.90;;;13.70;99.90;;;;;;5110460;28;20112;-58
2023/08/16 05:06:22;;;;;;;10.68;7.18;;;13.70;99.90;;;;;;5092754;27;20044;-55
2023/08/16 05:08:48;;;;;;;8.13;6.53;;;13.70;99.90;;;;;;5111660;27;20095;-57
2023/08/16 05:11:13;;;;;;;7.47;5.47;;;13.80;99.90;;;;;;5113144;27;20047;-56
2023/08/16 05:13:39;;;;;;;6.60;5.18;;;13.80;99.90;;;;;;5094637;27;20036;-57
2023/08/16 05:16:05;;;;;;;5.03;4.43;;;13.80;99.90;;;;;;5112438;28;20093;-56
2023/08/16 05:18:31;;;;;;;4.75;4.20;;;13.90;99.90;;;;;;5094511;28;20067;-59
2023/08/16 05:20:58;;;;;;;4.93;3.92;;;13.90;99.90;;;;;;5111739;28;20036;-56
2023/08/16 05:23:24;;;;;;;6.70;5.43;;;13.90;99.90;;;;;;5114573;27;20050;-59
2023/08/16 05:25:50;;;;;;;7.30;5.63;;;13.90;99.90;;;;;;5092653;28;20506;-58
2023/08/16 05:28:16;;;;;;;8.00;6.53;;;13.90;99.90;;;;;;5092084;27;20044;-57
2023/08/16 05:30:42;;;;;;;9.32;6.55;;;14.00;99.90;;;;;;5081358;28;20057;-59
2023/08/16 05:33:08;;;;;;;14.13;8.50;;;14.00;99.90;;;;;;5109299;28;20052;-57
2023/08/16 05:35:34;;;;;;;10.40;7.97;;;14.10;99.90;;;;;;5110627;28;20039;-58
2023/08/16 05:38:01;;;;;;;9.30;7.72;;;14.10;99.90;;;;;;5108476;28;20254;-58
2023/08/16 05:40:27;;;;;;;12.77;9.00;;;14.10;99.90;;;;;;5108498;27;20155;-58
2023/08/16 05:42:54;;;;;;;14.60;9.30;;;14.20;99.90;;;;;;5091801;28;20036;-58
2023/08/16 05:45:21;;;;;;;14.30;8.95;;;14.20;99.90;;;;;;5108853;28;20043;-56
2023/08/16 05:47:47;;;;;;;13.13;9.48;;;14.30;99.90;;;;;;5110593;27;20682;-58
2023/08/16 05:50:13;;;;;;;14.10;10.65;;;14.30;99.90;;;;;;5111774;28;20464;-58
2023/08/16 05:52:39;;;;;;;17.45;10.32;;;14.40;99.90;;;;;;5109694;27;20067;-58
2023/08/16 05:55:05;;;;;;;15.57;10.48;;;14.40;99.90;;;;;;5092516;28;20036;-58
2023/08/16 05:57:30;;;;;;;15.90;10.98;;;14.50;99.90;;;;;;5109039;27;20040;-59
2023/08/16 05:59:56;;;;;;;12.38;10.23;;;14.60;99.90;;;;;;5109158;28;20091;-58
2023/08/16 06:02:23;;;;;;;12.98;10.15;;;14.60;99.90;;;;;;5110060;28;20093;-59
2023/08/16 06:04:50;;;;;;;13.63;10.70;;;14.70;99.90;;;;;;5111887;28;20053;-58
2023/08/16 06:07:16;;;;;;;18.08;11.60;;;14.80;99.90;;;;;;5110637;27;20146;-58
2023/08/16 06:09:42;;;;;;;13.93;10.68;;;14.80;99.90;;;;;;5109270;27;20036;-57
2023/08/16 06:12:08;;;;;;;14.00;10.40;;;14.90;99.90;;;;;;5110580;27;20878;-58
2023/08/16 06:14:33;;;;;;;12.48;10.30;;;15.00;99.90;;;;;;5111824;27;20604;-59
2023/08/16 06:16:59;;;;;;;15.23;10.75;;;15.00;99.90;;;;;;5110483;27;20478;-59
2023/08/16 06:19:25;;;;;;;17.40;12.05;;;15.10;99.90;;;;;;5107531;27;20101;-58
2023/08/16 06:21:51;;;;;;;15.43;11.23;;;15.20;99.90;;;;;;5106465;28;20071;-58
2023/08/16 06:24:16;;;;;;;18.20;11.40;;;15.30;99.90;;;;;;5109944;28;20122;-55
2023/08/16 06:26:42;;;;;;;16.33;10.73;;;15.40;99.90;;;;;;5109348;27;20070;-57
2023/08/16 06:29:08;;;;;;;19.90;11.95;;;15.40;99.90;;;;;;5107313;27;20052;-56
2023/08/16 06:31:34;;;;;;;15.77;10.23;;;15.50;99.90;;;;;;5105267;28;20040;-57
2023/08/16 06:34:02;;;;;;;14.45;10.82;;;15.60;99.90;;;;;;5102633;28;20056;-57
2023/08/16 06:36:28;;;;;;;16.70;11.80;;;15.60;99.90;;;;;;5106342;28;20168;-58
2023/08/16 06:38:54;;;;;;;16.75;11.02;;;15.70;99.90;;;;;;5103130;28;20078;-59
2023/08/16 06:41:20;;;;;;;15.35;11.13;;;15.80;99.90;;;;;;5104994;28;20044;-58
2023/08/16 06:43:46;;;;;;;16.73;11.20;;;15.90;99.90;;;;;;5101692;28;20482;-58
2023/08/16 06:46:11;;;;;;;14.32;11.20;;;16.00;99.90;;;;;;5102874;28;20039;-56
2023/08/16 06:48:37;;;;;;;16.77;11.57;;;16.10;99.90;;;;;;5102453;28;20083;-57
2023/08/16 06:51:04;;;;;;;13.85;10.10;;;16.20;99.90;;;;;;5099927;28;20031;-59
2023/08/16 06:53:32;;;;;;;15.30;10.25;;;16.30;99.90;;;;;;5105658;28;20032;-59
2023/08/16 06:55:58;;;;;;;15.77;10.80;;;16.30;99.90;;;;;;5101164;28;20489;-59
2023/08/16 06:58:24;;;;;;;13.68;9.88;;;16.40;99.90;;;;;;5103275;28;20042;-58
2023/08/16 07:00:50;;;;;;;13.15;10.40;;;16.50;99.90;;;;;;5088529;28;20560;-58
2023/08/16 07:03:17;;;;;;;12.07;9.57;;;16.60;99.90;;;;;;5102310;28;20044;-58
2023/08/16 07:05:43;;;;;;;13.85;9.07;;;16.80;99.90;;;;;;5105601;28;20119;-59
2023/08/16 07:08:08;;;;;;;17.30;9.30;;;16.80;99.90;;;;;;5089918;28;20680;-59
2023/08/16 07:10:34;;;;;;;11.50;8.50;;;16.90;99.90;;;;;;5101523;28;20040;-58
2023/08/16 07:13:00;;;;;;;14.27;9.45;;;17.00;99.90;;;;;;5099304;28;20410;-59
2023/08/16 07:15:26;;;;;;;10.80;5.78;;;17.20;99.90;;;;;;5103525;28;20034;-57
2023/08/16 07:17:51;;;;;;;11.85;4.70;;;17.30;99.90;;;;;;5088962;28;20532;-58
2023/08/16 07:20:17;;;;;;;9.13;5.10;;;17.40;99.90;;;;;;5102414;28;20036;-57
2023/08/16 07:22:43;;;;;;;11.57;5.40;;;17.50;99.90;;;;;;5101427;28;20036;-58
2023/08/16 07:25:10;;;;;;;6.93;3.67;;;17.50;99.90;;;;;;5103255;28;20051;-56
2023/08/16 07:27:36;;;;;;;7.03;3.25;;;17.60;99.90;;;;;;5102656;28;20031;-58
2023/08/16 07:30:04;;;;;;;6.70;3.42;;;17.70;99.90;;;;;;5102085;28;20077;-59
2023/08/16 07:32:30;;;;;;;8.98;3.10;;;17.90;99.90;;;;;;5104756;28;20266;-58
2023/08/16 07:34:56;;;;;;;7.75;3.10;;;18.00;99.90;;;;;;5065895;27;1142103;-58
2023/08/16 07:37:22;;;;;;;4.80;2.40;;;18.10;99.90;;;;;;5102738;27;20070;-57
2023/08/16 07:39:48;;;;;;;7.13;2.70;;;18.30;99.90;;;;;;5091101;28;20069;-58
2023/08/16 07:42:15;;;;;;;5.85;2.83;;;18.30;99.90;;;;;;5101900;28;20410;-59
2023/08/16 07:44:41;;;;;;;7.45;2.90;;;18.50;99.90;;;;;;5106858;28;20039;-59
2023/08/16 07:47:06;;;;;;;6.80;2.53;;;18.60;99.90;;;;;;5105403;27;20119;-59
2023/08/16 07:49:32;;;;;;;4.22;2.25;;;18.70;99.90;;;;;;5103132;28;20039;-59
2023/08/16 07:51:58;;;;;;;8.70;2.15;;;18.80;99.90;;;;;;5103442;28;20036;-59
2023/08/16 07:54:24;;;;;;;4.30;1.85;;;18.90;99.90;;;;;;5105801;27;20622;-57
2023/08/16 07:56:51;;;;;;;5.00;2.45;;;18.90;99.90;;;;;;5105147;28;20055;-59
2023/08/16 07:59:17;;;;;;;5.28;2.00;;;18.90;99.90;;;;;;5101124;28;20059;-58
2023/08/16 08:01:43;;;;;;;6.28;2.00;;;19.00;99.90;;;;;;5102386;28;20253;-59
2023/08/16 08:04:09;;;;;;;6.63;2.00;;;19.10;99.90;;;;;;5100813;28;20043;-59
2023/08/16 08:06:36;;;;;;;4.85;2.35;;;19.10;99.90;;;;;;5085647;28;20039;-58
2023/08/16 08:09:03;;;;;;;8.52;2.35;;;19.20;99.90;;;;;;5101351;27;20733;-59
2023/08/16 08:11:28;;;;;;;3.38;1.73;;;19.20;99.90;;;;;;5102481;28;20051;-58
2023/08/16 08:13:54;;;;;;;4.57;2.00;;;19.30;99.90;;;;;;5102437;28;20035;-57
2023/08/16 08:16:20;;;;;;;3.58;1.58;;;19.40;99.90;;;;;;5100370;28;20502;-57
2023/08/16 08:18:46;;;;;;;3.78;1.65;;;19.40;99.90;;;;;;5101607;28;20051;-56
2023/08/16 08:21:12;;;;;;;6.40;1.77;;;19.50;99.90;;;;;;5081092;28;20055;-59
2023/08/16 08:23:37;;;;;;;5.55;1.52;;;19.60;99.90;;;;;;5102259;28;20394;-59
2023/08/16 08:26:03;;;;;;;6.68;1.83;;;19.70;99.90;;;;;;5100891;28;20043;-59
2023/08/16 08:28:29;;;;;;;4.80;1.73;;;19.70;99.90;;;;;;5101050;28;20413;-58
2023/08/16 08:30:55;;;;;;;3.47;1.52;;;19.80;99.90;;;;;;5100774;28;20035;-58
2023/08/16 08:33:21;;;;;;;3.55;1.30;;;19.80;99.90;;;;;;5099123;28;20078;-58
2023/08/16 08:35:48;;;;;;;4.32;1.55;;;19.80;99.90;;;;;;5100121;28;20047;-56
2023/08/16 08:38:14;;;;;;;6.40;1.50;;;19.90;99.90;;;;;;5098952;28;20044;-58
2023/08/16 08:40:40;;;;;;;3.58;1.42;;;20.10;99.90;;;;;;5100020;28;20038;-59
2023/08/16 08:43:09;;;;;;;5.70;1.88;;;20.20;99.90;;;;;;5101427;28;20051;-58
2023/08/16 08:45:35;;;;;;;7.90;2.45;;;20.30;99.90;;;;;;5100756;28;20062;-55
2023/08/16 08:48:01;;;;;;;5.65;1.88;;;20.50;99.90;;;;;;5104321;28;20490;-56
2023/08/16 08:50:28;;;;;;;5.85;1.80;;;20.60;99.90;;;;;;5100280;28;20040;-58
2023/08/16 08:52:56;;;;;;;5.00;1.60;;;20.70;99.90;;;;;;5082391;28;20091;-59
2023/08/16 08:55:25;;;;;;;3.97;1.63;;;20.90;99.90;;;;;;5100386;28;20054;-58
2023/08/16 08:57:53;;;;;;;4.60;1.50;;;21.00;99.90;;;;;;5100858;28;20793;-58
2023/08/16 09:00:20;;;;;;;9.48;1.88;;;21.20;99.90;;;;;;5100116;28;20043;-59
2023/08/16 09:02:53;;;;;;;4.43;1.60;;;21.40;99.90;;;;;;5103518;28;20043;-58
2023/08/16 09:05:22;;;;;;;3.47;1.35;;;21.50;99.90;;;;;;5101928;28;20040;-59
2023/08/16 09:07:48;;;;;;;3.75;1.95;;;21.60;99.90;;;;;;5101002;28;20069;-59
2023/08/16 09:10:15;;;;;;;2.88;1.80;;;21.70;99.90;;;;;;5100534;28;20032;-56
2023/08/16 09:12:42;;;;;;;3.45;1.70;;;21.80;99.90;;;;;;5104886;27;20032;-58
2023/08/16 09:15:09;;;;;;;3.90;1.70;;;21.70;99.90;;;;;;5090381;28;20051;-57
2023/08/16 09:17:35;;;;;;;3.25;1.50;;;21.80;99.90;;;;;;5088741;28;20063;-59
2023/08/16 09:20:01;;;;;;;5.47;1.88;;;21.80;99.90;;;;;;5106879;27;20558;-59
2023/08/16 09:22:30;;;;;;;3.78;1.70;;;21.90;99.90;;;;;;5106475;27;20043;-59
2023/08/16 09:24:57;;;;;;;2.67;1.38;;;22.00;99.90;;;;;;5105926;27;20039;-57
2023/08/16 09:27:25;;;;;;;7.60;1.50;;;22.10;99.90;;;;;;5108138;27;20040;-57
2023/08/16 09:29:56;;;;;;;4.03;1.55;;;22.30;99.90;;;;;;5109205;28;20068;-58
2023/08/16 09:32:26;;;;;;;3.90;1.40;;;22.40;99.90;;;;;;5107055;27;20114;-59
2023/08/16 09:34:56;;;;;;;6.10;1.63;;;22.40;99.90;;;;;;5105658;27;20044;-57
2023/08/16 09:37:21;;;;;;;4.28;1.30;;;22.50;99.90;;;;;;5106945;27;20044;-58
2023/08/16 09:39:58;;;;;;;2.70;1.30;;;22.60;99.90;;;;;;5090180;28;20044;-58
2023/08/16 09:42:32;;;;;;;3.30;1.55;;;22.50;99.90;;;;;;5090161;28;20058;-57
2023/08/16 09:44:57;;;;;;;5.15;1.55;;;22.50;99.90;;;;;;5108739;27;20052;-59
2023/08/16 09:47:25;;;;;;;4.35;1.63;;;22.50;99.90;;;;;;5107000;28;20047;-59
2023/08/16 09:49:51;;;;;;;4.45;1.67;;;22.60;99.90;;;;;;5089265;27;20413;-56
2023/08/16 09:52:18;;;;;;;4.22;1.50;;;22.80;99.90;;;;;;5106312;28;20530;-57
2023/08/16 09:54:49;;;;;;;5.60;1.67;;;22.80;99.90;;;;;;5105588;28;20040;-58
2023/08/16 09:57:16;;;;;;;5.40;1.45;;;22.90;99.90;;;;;;5105425;28;20044;-58
2023/08/16 09:59:43;;;;;;;2.58;1.48;;;23.00;99.90;;;;;;5086349;28;20066;-59
2023/08/16 10:02:12;;;;;;;4.90;1.77;;;23.10;99.90;;;;;;5101924;27;20047;-59
2023/08/16 10:04:41;;;;;;;5.45;1.55;;;23.30;99.90;;;;;;5101961;28;20031;-58
2023/08/16 10:07:08;;;;;;;2.80;1.63;;;23.60;99.90;;;;;;5102166;28;20074;-59
2023/08/16 10:09:35;;;;;;;3.58;1.40;;;23.70;99.90;;;;;;5102281;27;20073;-59
2023/08/16 10:12:05;;;;;;;4.82;1.35;;;23.60;99.90;;;;;;5100863;27;20036;-57
2023/08/16 10:14:31;;;;;;;2.17;1.30;;;23.80;99.90;;;;;;5102759;27;20086;-58
2023/08/16 10:17:01;;;;;;;4.25;1.33;;;24.00;99.90;;;;;;5101878;28;20036;-58
2023/08/16 10:19:32;;;;;;;3.20;1.40;;;24.00;99.90;;;;;;5099374;28;20365;-59
2023/08/16 10:22:00;;;;;;;3.37;1.50;;;23.90;99.50;;;;;;5101625;27;20044;-57
2023/08/16 10:24:30;;;;;;;3.72;1.48;;;23.80;99.40;;;;;;5081966;28;20124;-59
2023/08/16 10:26:59;;;;;;;3.63;1.48;;;23.70;99.30;;;;;;5103079;27;20048;-59
2023/08/16 10:29:28;;;;;;;4.00;1.45;;;23.60;99.40;;;;;;5084835;27;20130;-59
2023/08/16 10:31:54;;;;;;;2.28;1.58;;;23.60;99.40;;;;;;5102395;27;20031;-57
2023/08/16 10:34:22;;;;;;;4.03;1.35;;;23.40;99.20;;;;;;5103289;27;20056;-59
2023/08/16 10:36:48;;;;;;;2.63;1.40;;;23.20;99.10;;;;;;5101678;27;20426;-59
2023/08/16 10:39:22;;;;;;;4.35;1.35;;;23.00;99.20;;;;;;5102533;27;20052;-59
2023/08/16 10:41:50;;;;;;;2.60;1.30;;;23.00;99.30;;;;;;5103173;27;20035;-59
2023/08/16 10:44:23;;;;;;;2.28;1.00;;;22.80;99.10;;;;;;5102173;28;20046;-58
2023/08/16 10:46:50;;;;;;;2.55;1.15;;;22.70;99.00;;;;;;5083451;27;20039;-59
2023/08/16 10:49:18;;;;;;;2.88;1.55;;;22.70;99.40;;;;;;5103668;27;20048;-57
2023/08/16 10:51:55;;;;;;;2.65;1.33;;;23.00;99.40;;;;;;5101468;27;20073;-59
2023/08/16 10:54:41;;;;;;;2.70;1.58;;;23.40;99.70;;;;;;5103289;28;20389;-58
2023/08/16 10:57:08;;;;;;;5.20;1.70;;;23.80;99.50;;;;;;5102929;27;20082;-59
2023/08/16 10:59:41;;;;;;;3.80;1.20;;;24.10;98.60;;;;;;5100068;28;20505;-59
2023/08/16 11:02:14;;;;;;;3.75;1.45;;;24.20;97.80;;;;;;5101523;27;20065;-58
2023/08/16 11:04:42;;;;;;;3.22;1.60;;;24.30;97.50;;;;;;5102096;28;20039;-58
2023/08/16 11:07:12;;;;;;;3.97;1.48;;;24.30;97.00;;;;;;5100650;28;20035;-58
2023/08/16 11:09:41;;;;;;;4.10;1.55;;;24.10;96.70;;;;;;5085199;28;20050;-59
2023/08/16 11:12:07;;;;;;;5.47;1.70;;;23.90;97.00;;;;;;5101560;28;20050;-58
2023/08/16 11:14:34;;;;;;;4.53;1.40;;;24.10;97.70;;;;;;5102927;28;20043;-58
2023/08/16 11:17:02;;;;;;;2.38;1.50;;;24.40;97.60;;;;;;5101308;27;20031;-59
2023/08/16 11:19:28;;;;;;;3.55;1.75;;;24.80;97.40;;;;;;5102602;28;20066;-57
2023/08/16 11:21:58;;;;;;;4.25;1.88;;;25.20;96.80;;;;;;5103184;28;20078;-60
2023/08/16 11:24:24;;;;;;;4.07;1.40;;;25.60;96.30;;;;;;5103404;28;20039;-56
2023/08/16 11:26:53;;;;;;;3.42;1.48;;;25.80;94.70;;;;;;5103472;28;20071;-59
2023/08/16 11:29:18;;;;;;;2.47;1.35;;;26.00;93.50;;;;;;5104603;28;20044;-59
2023/08/16 11:31:44;;;;;;;3.65;1.23;;;26.10;93.20;;;;;;5101136;28;20028;-59
2023/08/16 11:34:10;;;;;;;3.22;1.13;;;26.10;92.60;;;;;;5104815;28;20119;-58
2023/08/16 11:36:40;;;;;;;3.08;1.85;;;26.10;91.90;;;;;;5102863;28;20044;-60
2023/08/16 11:39:09;;;;;;;5.68;1.90;;;25.90;91.30;;;;;;5085408;28;20038;-60
2023/08/16 11:41:36;;;;;;;3.08;1.80;;;25.80;91.20;;;;;;5078280;28;20047;-57
2023/08/16 11:44:03;;;;;;;8.57;2.33;;;25.50;90.90;;;;;;5096206;28;20051;-58
2023/08/16 11:46:39;;;;;;;2.83;1.35;;;25.20;91.10;;;;;;5102730;28;20044;-60
2023/08/16 11:49:05;;;;;;;3.58;1.60;;;25.20;92.00;;;;;;5091948;28;20071;-57
2023/08/16 11:51:30;;;;;;;4.53;1.70;;;25.50;91.90;;;;;;5080708;28;20055;-57
2023/08/16 11:53:58;;;;;;;5.00;2.10;;;25.70;91.60;;;;;;5098313;28;20039;-57
2023/08/16 11:56:28;;;;;;;3.25;1.70;;;26.00;91.60;;;;;;5079460;28;20035;-59
2023/08/16 11:58:55;;;;;;;6.05;1.90;;;26.20;90.70;;;;;;5097338;28;20031;-58
2023/08/16 12:01:22;;;;;;;7.28;1.60;;;26.30;90.60;;;;;;5104792;27;20031;-60
2023/08/16 12:03:49;;;;;;;3.38;1.25;;;26.50;90.10;;;;;;5105463;28;20077;-60
2023/08/16 12:06:18;;;;;;;1.75;1.02;;;26.60;88.60;;;;;;5110199;28;20045;-60
2023/08/16 12:08:52;;;;;;;2.30;1.10;;;26.70;88.10;;;;;;5109199;28;20075;-60
2023/08/16 12:11:32;;;;;;;2.92;1.17;;;26.90;85.80;;;;;;5104942;28;20666;-57
2023/08/16 12:14:00;;;;;;;5.18;1.50;;;27.10;86.80;;;;;;5091238;28;20040;-59
2023/08/16 12:16:26;;;;;;;3.25;2.00;;;27.30;85.70;;;;;;5093135;28;20098;-59
2023/08/16 12:18:52;;;;;;;4.78;1.60;;;27.40;84.50;;;;;;5100446;28;20554;-58
2023/08/16 12:21:18;;;;;;;3.47;1.50;;;27.70;83.90;;;;;;5097213;28;20047;-59
2023/08/16 12:23:46;;;;;;;2.67;1.30;;;27.80;82.00;;;;;;5073738;28;20044;-60
2023/08/16 12:26:15;;;;;;;3.67;1.40;;;27.90;82.20;;;;;;5094356;28;20050;-58
2023/08/16 12:28:42;;;;;;;2.83;1.27;;;27.80;81.00;;;;;;5092565;28;20458;-58
2023/08/16 12:31:07;;;;;;;2.08;0.98;;;27.90;81.50;;;;;;5094117;28;20044;-59
2023/08/16 12:33:33;;;;;;;1.55;0.80;;;27.90;79.70;;;;;;5078463;28;20079;-59
2023/08/16 12:35:59;;;;;;;2.70;1.02;;;27.60;79.40;;;;;;5077956;28;20554;-59
2023/08/16 12:38:25;;;;;;;4.43;1.00;;;27.20;80.30;;;;;;5074736;28;20047;-57
2023/08/16 12:40:51;;;;;;;4.32;1.38;;;27.00;79.80;;;;;;5091228;28;20123;-59
2023/08/16 12:43:18;;;;;;;2.58;1.48;;;26.70;79.70;;;;;;5099770;28;20591;-59